Forside
METAR-TAF:

METAR-TAF

Lufthavne :

Forest City, Iowa, USA

Breddekreds: 43-14-05N, længdekreds: 093-37-27W, højde: 375 m

Aktuelle vejr

Denne rapport blev lavet for 24 minutter siden, kl. 08:55 UTC
Vind 3 kt fra nordnordøst
Temperatur -12°C
Fugtighed 100%
Tryk 1015 hPa
Sigt: 11.3 km
Overskyet i en højde af 700 ft

METAR: KFXY 130855Z AUTO 03003KT 7SM OVC007 M12/M12 A2998 RMK AO2

Tid: 03:19 (09:19 UTC)


TAF: fraværende

Vejrobservationer og prognoser fra mere end 4000 lufthavne (METAR og TAF).

De gule og røde prikker repræsenterer de meteorologiske stationer.

Flyt musen over at se navnet på stationen.

Så klik over at se vejr observationer og prognoser.

At skifte det kort: Klik på de grønne knapper med et sort kors for at zoome ind; på den grønne knap med en bindestreg for at zoome ud; eller på de grønne pile for tilstødende kort.


METAR-TAF: